Darstellungsparameter: Aktuell verwendete Einstellungen:
Skalierung der Graphiken ... ?
xyx+y,   Skalierungsfaktor:      Skalierung: Modus: x, Faktor: 1
Darstellungszeitraum ... ?
Vom - - bis: - -   Zeitraum: 12.05.2010 - 18.05.2010
Min/Max/Avg-Anzeige ... ?
Zeige MMA aktuell
Zeige MMA Monat
Zeige MMA alles
Zeige --A aktuell
Zeige --A Monat
Zeige --A alles
Keine MMA-Anzeige
MMA:
Average (ber die Originaldaten)
MMA-Basis: 12.05.2010 - 18.05.2010
Quicknavigation für Darstellung... ?
Tage:      1T, 2T, 3T, 5T -1T -2T -3T -5T +1T +2T +3T +5T
Wochen: 1W, 2W, 3W -1W -2W -3W +1W +2W +3W
Monate: 1M, 3M, 6M -1M -3M -6M +1M +3M +6M
Jahre:    1J, 3J, 5J, 10J -1J -3J -5J -10J +1J +3J +5J +10J
Nutze für die Darstellung ... ?
Originaldaten oder ...
Mittelwerte Minima Maxima auf...
Stundenbasis Tagesbasis Wochenbasis
Monatsbasis Jahresbasis      Datenbasis: Mittelwerte auf Stundenbasis
Darstellen als:
Statistik (Auto) Statistik J:M      Darstellung:
Zur Graphik,    zurück zur Übersicht aller Sensoren.
 
Tabellarische Datenbersicht: ?
 
Sensor: Nr:Datum:Temp:Abs-Feuchte:Windchill:Wind:
Aussen-T/F 1 12-05-2010 00:00:00 9.32 C 8.46 g/m*3 9.32 C 0 km/h
2 12-05-2010 01:00:00 8.52 C 8.07 g/m*3 8.52 C 0 km/h
3 12-05-2010 02:00:00 7.72 C 7.7 g/m*3 7.72 C 0 km/h
4 12-05-2010 03:00:00 7.12 C 7.32 g/m*3 7.12 C 0 km/h
5 12-05-2010 04:00:00 6.88 C 7 g/m*3 6.88 C 0 km/h
6 12-05-2010 05:00:00 6.8 C 6.67 g/m*3 6.8 C 0 km/h
7 12-05-2010 06:00:00 6.78 C 6.57 g/m*3 6.78 C 0 km/h
8 12-05-2010 07:00:00 7.08 C 6.62 g/m*3 7.08 C 0 km/h
9 12-05-2010 08:00:00 7.64 C 6.54 g/m*3 7.64 C 0 km/h
10 12-05-2010 09:00:00 8.28 C 6.23 g/m*3 8.28 C 0 km/h
11 12-05-2010 10:00:00 8.6 C 5.98 g/m*3 8.6 C 0 km/h
12 12-05-2010 11:00:00 9.18 C 5.71 g/m*3 9.18 C 0 km/h
13 12-05-2010 12:00:00 10.06 C 5.43 g/m*3 10.06 C 0 km/h
14 12-05-2010 13:00:00 10.68 C 5.3 g/m*3 10.68 C 0 km/h
15 12-05-2010 14:00:00 10.52 C 5.13 g/m*3 10.52 C 0 km/h
16 12-05-2010 15:00:00 10.84 C 5.01 g/m*3 10.84 C 0 km/h
17 12-05-2010 16:00:00 10.52 C 5.24 g/m*3 10.52 C 0 km/h
18 12-05-2010 17:00:00 9.74 C 5.29 g/m*3 9.74 C 0 km/h
19 12-05-2010 18:00:00 9.22 C 5.45 g/m*3 9.22 C 0 km/h
20 12-05-2010 19:00:00 8.9 C 5.69 g/m*3 8.9 C 0 km/h
21 12-05-2010 20:00:00 8.56 C 5.85 g/m*3 8.56 C 0 km/h
22 12-05-2010 21:00:00 8.44 C 6 g/m*3 8.44 C 0 km/h
23 12-05-2010 22:00:00 7.76 C 6.41 g/m*3 7.76 C 0 km/h
24 12-05-2010 23:00:00 7.8 C 6.68 g/m*3 7.8 C 0 km/h
25 13-05-2010 00:00:00 7.58 C 6.47 g/m*3 7.58 C 0 km/h
Sensor: Nr:Datum:Temp:Abs-Feuchte:Windchill:Wind:
Aussen-T/F 26 13-05-2010 01:00:00 7.34 C 6.51 g/m*3 7.34 C 0 km/h
27 13-05-2010 02:00:00 7.42 C 6.58 g/m*3 7.42 C 0 km/h
28 13-05-2010 03:00:00 7.3 C 6.51 g/m*3 7.3 C 0 km/h
29 13-05-2010 04:00:00 7 C 6.59 g/m*3 7 C 0 km/h
30 13-05-2010 05:00:00 6.76 C 6.65 g/m*3 6.76 C 0 km/h
31 13-05-2010 06:00:00 6.64 C 6.66 g/m*3 6.64 C 0 km/h
32 13-05-2010 07:00:00 6.8 C 6.7 g/m*3 6.8 C 0 km/h
33 13-05-2010 08:00:00 6.94 C 6.27 g/m*3 6.94 C 0 km/h
34 13-05-2010 09:00:00 7.94 C 6 g/m*3 7.94 C 0 km/h
35 13-05-2010 10:00:00 9.46 C 5.43 g/m*3 9.46 C 0 km/h
36 13-05-2010 11:00:00 9.9 C 5.06 g/m*3 9.9 C 0 km/h
37 13-05-2010 12:00:00 10.06 C 4.85 g/m*3 10.06 C 0 km/h
38 13-05-2010 13:00:00 9.74 C 4.99 g/m*3 9.74 C 0 km/h
39 13-05-2010 14:00:00 10.6 C 5.02 g/m*3 10.6 C 0 km/h
40 13-05-2010 15:00:00 10.1 C 4.99 g/m*3 10.1 C 0 km/h
41 13-05-2010 16:00:00 8.66 C 6.02 g/m*3 8.66 C 0 km/h
42 13-05-2010 17:00:00 8.22 C 6.37 g/m*3 8.22 C 0 km/h
43 13-05-2010 18:00:00 8.56 C 6.91 g/m*3 8.56 C 0 km/h
44 13-05-2010 19:00:00 7.4 C 6.78 g/m*3 7.4 C 0 km/h
45 13-05-2010 20:00:00 7.44 C 6.98 g/m*3 7.44 C 0 km/h
46 13-05-2010 21:00:00 7.44 C 7.11 g/m*3 7.44 C 0 km/h
47 13-05-2010 22:00:00 7.3 C 7.11 g/m*3 7.3 C 0 km/h
48 13-05-2010 23:00:00 7.24 C 7.13 g/m*3 7.24 C 0 km/h
49 14-05-2010 00:00:00 6.96 C 7.16 g/m*3 6.96 C 0 km/h
50 14-05-2010 01:00:00 7.04 C 7.24 g/m*3 7.04 C 0 km/h
Sensor: Nr:Datum:Temp:Abs-Feuchte:Windchill:Wind:
Aussen-T/F 51 14-05-2010 02:00:00 7 C 7.24 g/m*3 7 C 0 km/h
52 14-05-2010 03:00:00 6.98 C 7.27 g/m*3 6.98 C 0 km/h
53 14-05-2010 04:00:00 6.94 C 7.26 g/m*3 6.94 C 0 km/h
54 14-05-2010 05:00:00 6.88 C 7.26 g/m*3 6.88 C 0 km/h
55 14-05-2010 06:00:00 7.1 C 7.33 g/m*3 7.1 C 0 km/h
56 14-05-2010 07:00:00 7.4 C 7.38 g/m*3 7.4 C 0 km/h
57 14-05-2010 08:00:00 7.92 C 7.35 g/m*3 7.92 C 0 km/h
58 14-05-2010 09:00:00 8.18 C 7.18 g/m*3 8.18 C 0 km/h
59 14-05-2010 10:00:00 9.58 C 7.19 g/m*3 9.58 C 0 km/h
60 14-05-2010 11:00:00 10.38 C 6.76 g/m*3 10.38 C 0 km/h
61 14-05-2010 12:00:00 9.16 C 6.89 g/m*3 9.16 C 0 km/h
62 14-05-2010 13:00:00 9.46 C 7.59 g/m*3 9.46 C 0 km/h
63 14-05-2010 14:00:00 9.58 C 7.74 g/m*3 9.58 C 0 km/h
64 14-05-2010 15:00:00 11.86 C 7.61 g/m*3 11.86 C 0 km/h
65 14-05-2010 16:00:00 12.98 C 6.77 g/m*3 12.98 C 0 km/h
66 14-05-2010 17:00:00 11.54 C 6.61 g/m*3 11.54 C 0 km/h
67 14-05-2010 18:00:00 11.56 C 6.76 g/m*3 11.56 C 0 km/h
68 14-05-2010 19:00:00 10.46 C 7 g/m*3 10.46 C 0 km/h
69 14-05-2010 20:00:00 9.94 C 6.93 g/m*3 9.94 C 0 km/h
70 14-05-2010 21:00:00 9.14 C 6.87 g/m*3 9.14 C 0 km/h
71 14-05-2010 22:00:00 9.08 C 7.07 g/m*3 9.08 C 0 km/h
72 14-05-2010 23:00:00 8.24 C 7.17 g/m*3 8.24 C 0 km/h
73 15-05-2010 00:00:00 7.9 C 7.2 g/m*3 7.9 C 0 km/h
74 15-05-2010 01:00:00 7.7 C 7.14 g/m*3 7.7 C 0 km/h
75 15-05-2010 02:00:00 7.64 C 7.17 g/m*3 7.64 C 0 km/h
Sensor: Nr:Datum:Temp:Abs-Feuchte:Windchill:Wind:
Aussen-T/F 76 15-05-2010 03:00:00 7.6 C 7.22 g/m*3 7.6 C 0 km/h
77 15-05-2010 04:00:00 7.6 C 7.25 g/m*3 7.6 C 0 km/h
78 15-05-2010 05:00:00 7.26 C 7.17 g/m*3 7.26 C 0 km/h
79 15-05-2010 06:00:00 7.1 C 7.14 g/m*3 7.1 C 0 km/h
80 15-05-2010 07:00:00 7.6 C 7.4 g/m*3 7.6 C 0 km/h
81 15-05-2010 08:00:00 8.48 C 7.26 g/m*3 8.48 C 0 km/h
82 15-05-2010 09:00:00 9.48 C 6.82 g/m*3 9.48 C 0 km/h
83 15-05-2010 10:00:00 10.8 C 6.42 g/m*3 10.8 C 0 km/h
84 15-05-2010 11:00:00 11.2 C 6.12 g/m*3 11.2 C 0 km/h
85 15-05-2010 12:00:00 11.64 C 5.44 g/m*3 11.64 C 0 km/h
86 15-05-2010 13:00:00 12.06 C 4.84 g/m*3 12.06 C 0 km/h
87 15-05-2010 14:00:00 14.26 C 4.19 g/m*3 14.26 C 0 km/h
88 15-05-2010 15:00:00 15.5 C 3.01 g/m*3 15.5 C 0 km/h
89 15-05-2010 16:00:00 14.78 C 2.76 g/m*3 14.78 C 0 km/h
90 15-05-2010 17:00:00 14 C 3.16 g/m*3 14 C 0 km/h
91 15-05-2010 18:00:00 13.82 C 3.46 g/m*3 13.82 C 0 km/h
92 15-05-2010 19:00:00 14.58 C 3.4 g/m*3 14.58 C 0 km/h
93 15-05-2010 20:00:00 12.5 C 4.49 g/m*3 12.5 C 0 km/h
94 15-05-2010 21:00:00 10.98 C 4.68 g/m*3 10.98 C 0 km/h
95 15-05-2010 22:00:00 11.06 C 4.82 g/m*3 11.06 C 0 km/h
96 15-05-2010 23:00:00 10.84 C 4.97 g/m*3 10.84 C 0 km/h
97 16-05-2010 00:00:00 10.1 C 5.33 g/m*3 10.1 C 0 km/h
98 16-05-2010 01:00:00 9.34 C 5.68 g/m*3 9.34 C 0 km/h
99 16-05-2010 02:00:00 8.04 C 5.88 g/m*3 8.04 C 0 km/h
100 16-05-2010 03:00:00 7.48 C 5.9 g/m*3 7.48 C 0 km/h
Sensor: Nr:Datum:Temp:Abs-Feuchte:Windchill:Wind:
Aussen-T/F 101 16-05-2010 04:00:00 7.6 C 5.95 g/m*3 7.6 C 0 km/h
102 16-05-2010 05:00:00 7.3 C 5.93 g/m*3 7.3 C 0 km/h
103 16-05-2010 06:00:00 7.42 C 5.99 g/m*3 7.42 C 0 km/h
104 16-05-2010 07:00:00 7.84 C 6.07 g/m*3 7.84 C 0 km/h
105 16-05-2010 08:00:00 8.72 C 6.1 g/m*3 8.72 C 0 km/h
106 16-05-2010 09:00:00 10.96 C 4.87 g/m*3 10.96 C 0 km/h
107 16-05-2010 10:00:00 12.56 C 4.19 g/m*3 12.56 C 0 km/h
108 16-05-2010 11:00:00 14.84 C 3.99 g/m*3 14.84 C 0 km/h
109 16-05-2010 12:00:00 16.64 C 3.6 g/m*3 16.64 C 0 km/h
110 16-05-2010 13:00:00 17.66 C 3.52 g/m*3 17.66 C 0 km/h
111 16-05-2010 14:00:00 17.92 C 3.55 g/m*3 17.92 C 0 km/h
112 16-05-2010 15:00:00 19.5 C 3.36 g/m*3 19.5 C 0 km/h
113 16-05-2010 16:00:00 20.54 C 3.57 g/m*3 20.54 C 0 km/h
114 16-05-2010 17:00:00 21.3 C 3.73 g/m*3 21.3 C 0 km/h
115 16-05-2010 18:00:00 19.82 C 3.52 g/m*3 19.82 C 0 km/h
116 16-05-2010 19:00:00 18.86 C 3.68 g/m*3 18.86 C 0 km/h
117 16-05-2010 20:00:00 17.96 C 4.47 g/m*3 17.96 C 0 km/h
118 16-05-2010 21:00:00 14.28 C 4.81 g/m*3 14.28 C 0 km/h
119 16-05-2010 22:00:00 12.36 C 5.34 g/m*3 12.36 C 0 km/h
120 16-05-2010 23:00:00 10.86 C 5.81 g/m*3 10.86 C 0 km/h
121 17-05-2010 00:00:00 10.12 C 5.96 g/m*3 10.12 C 0 km/h
122 17-05-2010 01:00:00 9.36 C 5.99 g/m*3 9.36 C 0 km/h
123 17-05-2010 02:00:00 8.56 C 6.14 g/m*3 8.56 C 0 km/h
124 17-05-2010 03:00:00 7.64 C 6.12 g/m*3 7.64 C 0 km/h
125 17-05-2010 04:00:00 6.96 C 6.11 g/m*3 6.96 C 0 km/h
Sensor: Nr:Datum:Temp:Abs-Feuchte:Windchill:Wind:
Aussen-T/F 126 17-05-2010 05:00:00 6.22 C 6.08 g/m*3 6.22 C 0 km/h
127 17-05-2010 06:00:00 6 C 6.05 g/m*3 6 C 0 km/h
128 17-05-2010 07:00:00 7.08 C 6.18 g/m*3 7.08 C 0 km/h
129 17-05-2010 08:00:00 9.42 C 6.28 g/m*3 9.42 C 0 km/h
130 17-05-2010 09:00:00 11.88 C 6.43 g/m*3 11.88 C 0 km/h
131 17-05-2010 10:00:00 13.7 C 6.39 g/m*3 13.7 C 0 km/h
132 17-05-2010 11:00:00 13.6 C 6.87 g/m*3 13.6 C 0 km/h
133 17-05-2010 12:00:00 13.88 C 7.45 g/m*3 13.88 C 0 km/h
134 17-05-2010 13:00:00 16.62 C 6.68 g/m*3 16.62 C 0 km/h
135 17-05-2010 14:00:00 15.88 C 6.98 g/m*3 15.88 C 0 km/h
136 17-05-2010 15:00:00 12.66 C 9.22 g/m*3 12.66 C 0 km/h
137 17-05-2010 16:00:00 13.44 C 9.46 g/m*3 13.44 C 0 km/h
138 17-05-2010 17:00:00 13.86 C 8.92 g/m*3 13.86 C 0 km/h
139 17-05-2010 18:00:00 12.1 C 7.59 g/m*3 12.1 C 0 km/h
140 17-05-2010 19:00:00 10.04 C 7.8 g/m*3 10.04 C 0 km/h
141 17-05-2010 20:00:00 9.46 C 7.86 g/m*3 9.46 C 0 km/h
142 17-05-2010 21:00:00 8.88 C 7.82 g/m*3 8.88 C 0 km/h
143 17-05-2010 22:00:00 8.5 C 7.82 g/m*3 8.5 C 0 km/h
144 17-05-2010 23:00:00 7.8 C 7.52 g/m*3 7.8 C 0 km/h
145 18-05-2010 00:00:00 7.08 C 7.18 g/m*3 7.08 C 0 km/h
146 18-05-2010 01:00:00 6.46 C 6.94 g/m*3 6.46 C 0 km/h
147 18-05-2010 02:00:00 6.1 C 6.79 g/m*3 6.1 C 0 km/h
148 18-05-2010 03:00:00 5.8 C 6.69 g/m*3 5.8 C 0 km/h
149 18-05-2010 04:00:00 6.28 C 6.93 g/m*3 6.28 C 0 km/h
150 18-05-2010 05:00:00 6.5 C 7 g/m*3 6.5 C 0 km/h
Sensor: Nr:Datum:Temp:Abs-Feuchte:Windchill:Wind:
Aussen-T/F 151 18-05-2010 06:00:00 7.14 C 7.21 g/m*3 7.14 C 0 km/h
152 18-05-2010 07:00:00 8.2 C 7.47 g/m*3 8.2 C 0 km/h
153 18-05-2010 08:00:00 9.04 C 6.68 g/m*3 9.04 C 0 km/h
154 18-05-2010 09:00:00 9.7 C 6.27 g/m*3 9.7 C 0 km/h
155 18-05-2010 10:00:00 10.84 C 5.79 g/m*3 10.84 C 0 km/h
156 18-05-2010 11:00:00 12.74 C 5.31 g/m*3 12.74 C 0 km/h
157 18-05-2010 12:00:00 14.04 C 4.93 g/m*3 14.04 C 0 km/h
158 18-05-2010 13:00:00 16.76 C 4.48 g/m*3 16.76 C 0 km/h
159 18-05-2010 14:00:00 15.6 C 4.2 g/m*3 15.6 C 0 km/h
160 18-05-2010 15:00:00 16.48 C 4.15 g/m*3 16.48 C 0 km/h
161 18-05-2010 16:00:00 17.74 C 3.51 g/m*3 17.74 C 0 km/h
162 18-05-2010 17:00:00 17.16 C 3.77 g/m*3 17.16 C 0 km/h
163 18-05-2010 18:00:00 17.18 C 3.95 g/m*3 17.18 C 0 km/h
164 18-05-2010 19:00:00 15.32 C 4.45 g/m*3 15.32 C 0 km/h
165 18-05-2010 20:00:00 14.26 C 4.83 g/m*3 14.26 C 0 km/h
166 18-05-2010 21:00:00 12.8 C 4.68 g/m*3 12.8 C 0 km/h
167 18-05-2010 22:00:00 11.44 C 4.57 g/m*3 11.44 C 0 km/h
168 18-05-2010 23:00:00 9.98 C 5.41 g/m*3 9.98 C 0 km/h

Maximal/Minimal-Werte vom 12.05.2010 - 18.05.2010

Sensor Min Max Avg
Temp
(Aussen-T/F)
5.7 °C
18-05-2010  03:22:04
21.7 °C
16-05-2010  17:08:02
10.24 °C
Abs-Feuchte
(Aussen-T/F)
2.76 g/m*3
15-05-2010  16:00:00
9.46 g/m*3
17-05-2010  16:00:00
6.05 g/m*3
Windchill
(Aussen-T/F)
5.8 C
18-05-2010  03:00:00
21.3 C
16-05-2010  17:00:00
10.18 C

Die Daten stammen von einer Davis Vantage Pro 2 Wetter-Station und werden unter Linux mit der Software wview2wettercgi und aufbereitet. Alle Angaben erfolgen ohne Gewähr für ihre Vollständigkeit oder Richtigkeit.
Kontakt: Rainer Krienke krienke@uni-koblenz.de . Meine Webseiten an der Uni Koblenz oder privat.
Version: $Revision: 0.78 $